createdAt,value
2022-10-17T00:01:59.660Z,3.73
2022-10-17T00:04:45.437Z,3.45
2022-10-17T00:07:31.464Z,3.93
2022-10-17T00:10:17.704Z,4.11
2022-10-17T00:13:03.512Z,3.77
2022-10-17T00:15:49.329Z,3.51
2022-10-17T00:18:35.117Z,3.78
2022-10-17T00:21:20.888Z,3.90
2022-10-17T00:24:06.973Z,4.22
2022-10-17T00:26:54.662Z,4.47
2022-10-17T00:29:40.630Z,4.17
2022-10-17T00:32:28.721Z,4.16
2022-10-17T00:35:14.969Z,3.98
2022-10-17T00:38:00.785Z,4.15
2022-10-17T00:40:46.693Z,3.77
2022-10-17T00:43:32.457Z,3.82
2022-10-17T00:46:18.371Z,3.95
2022-10-17T00:49:04.191Z,3.78
2022-10-17T00:51:50.027Z,3.84
2022-10-17T00:54:35.933Z,3.68
2022-10-17T00:57:21.711Z,3.88
2022-10-17T01:00:07.677Z,3.65
2022-10-17T01:02:53.671Z,3.69
2022-10-17T01:05:39.537Z,3.45
2022-10-17T01:08:25.306Z,3.50
2022-10-17T01:11:11.346Z,3.52
2022-10-17T01:13:57.265Z,3.48
2022-10-17T01:16:43.200Z,3.39
2022-10-17T01:19:29.149Z,3.39
2022-10-17T01:22:14.855Z,3.35
2022-10-17T01:25:00.877Z,3.37
2022-10-17T01:27:46.626Z,3.37
2022-10-17T01:30:32.529Z,3.42
2022-10-17T01:33:18.339Z,3.58
2022-10-17T01:36:05.811Z,3.52
2022-10-17T01:38:52.401Z,3.50
2022-10-17T01:41:38.278Z,3.82
2022-10-17T01:44:24.249Z,3.55
2022-10-17T01:47:10.192Z,3.80
2022-10-17T01:49:55.929Z,3.46
2022-10-17T01:52:41.861Z,3.81
2022-10-17T01:55:27.635Z,3.63
2022-10-17T01:58:13.496Z,3.91
2022-10-17T02:00:59.559Z,3.95
2022-10-17T02:03:45.343Z,3.56
2022-10-17T02:06:31.056Z,4.06
2022-10-17T02:09:16.911Z,4.25
2022-10-17T02:12:02.679Z,4.27
2022-10-17T02:14:48.480Z,4.17
2022-10-17T02:17:34.308Z,4.39
2022-10-17T02:20:20.329Z,3.94
2022-10-17T02:23:08.224Z,4.00
2022-10-17T02:25:54.043Z,3.94
2022-10-17T02:28:39.977Z,4.13
2022-10-17T02:31:25.879Z,4.13
2022-10-17T02:34:11.707Z,4.19
2022-10-17T02:36:57.511Z,4.02
2022-10-17T02:39:43.309Z,3.71
2022-10-17T02:42:29.542Z,4.02
2022-10-17T02:45:15.797Z,3.90
2022-10-17T02:48:01.567Z,4.17
2022-10-17T02:50:47.426Z,4.26
2022-10-17T02:53:33.395Z,4.15
2022-10-17T02:56:21.331Z,4.32
2022-10-17T02:59:07.106Z,4.20
2022-10-17T03:01:53.108Z,4.04
2022-10-17T03:04:38.877Z,4.07
2022-10-17T03:07:24.799Z,4.21
2022-10-17T03:10:10.575Z,4.13
2022-10-17T03:12:56.487Z,4.05
2022-10-17T03:15:42.333Z,4.29
2022-10-17T03:18:28.028Z,4.29
2022-10-17T03:21:13.895Z,4.62
2022-10-17T03:23:59.813Z,4.19
2022-10-17T03:29:32.670Z,4.02
2022-10-17T03:32:18.484Z,4.09
2022-10-17T03:35:04.318Z,4.03
2022-10-17T03:37:50.487Z,3.81
2022-10-17T03:40:36.226Z,3.89
2022-10-17T03:43:22.023Z,4.09
2022-10-17T03:46:08.037Z,3.56
2022-10-17T03:48:54.165Z,3.68
2022-10-17T03:51:40.064Z,3.89
2022-10-17T03:54:25.829Z,3.94
2022-10-17T03:57:11.641Z,3.91
2022-10-17T03:59:57.517Z,3.87
2022-10-17T04:02:43.449Z,3.94
2022-10-17T04:05:29.304Z,3.71
2022-10-17T04:08:15.145Z,3.90
2022-10-17T04:11:00.931Z,3.76
2022-10-17T04:13:46.873Z,3.68
2022-10-17T04:16:32.709Z,3.95
2022-10-17T04:19:18.640Z,4.03
2022-10-17T04:22:04.459Z,3.77
2022-10-17T04:24:50.206Z,3.94
2022-10-17T04:27:36.166Z,3.46
2022-10-17T04:30:21.975Z,3.55
2022-10-17T04:33:07.684Z,3.85
2022-10-17T04:35:53.612Z,3.61
2022-10-17T04:38:41.399Z,3.85
2022-10-17T04:41:27.224Z,3.57
2022-10-17T04:44:13.153Z,3.73
2022-10-17T04:46:59.069Z,3.69
2022-10-17T04:49:44.908Z,3.79
2022-10-17T04:52:31.235Z,3.63
2022-10-17T04:55:17.398Z,3.38
2022-10-17T04:58:03.366Z,3.86
2022-10-17T05:00:49.122Z,3.73
2022-10-17T05:03:34.792Z,3.69
2022-10-17T05:06:20.644Z,3.79
2022-10-17T05:09:06.407Z,4.12
2022-10-17T05:11:52.330Z,4.23
2022-10-17T05:14:38.022Z,4.24
2022-10-17T05:17:23.922Z,4.15
2022-10-17T05:20:09.783Z,3.93
2022-10-17T05:22:55.687Z,3.67
2022-10-17T05:25:41.518Z,3.97
2022-10-17T05:28:27.579Z,3.66
2022-10-17T05:31:13.364Z,3.65
2022-10-17T05:33:59.331Z,4.09
2022-10-17T05:36:45.178Z,4.00
2022-10-17T05:39:31.058Z,3.66
2022-10-17T05:42:16.897Z,4.28
2022-10-17T05:45:02.789Z,4.01
2022-10-17T05:47:48.691Z,3.97
2022-10-17T05:50:34.537Z,4.25
2022-10-17T05:53:20.567Z,4.16
2022-10-17T05:56:06.581Z,4.33
2022-10-17T05:58:55.187Z,4.09
2022-10-17T06:01:43.279Z,4.12
2022-10-17T06:04:29.143Z,4.02
2022-10-17T06:07:14.905Z,4.41
2022-10-17T06:10:00.862Z,4.62
2022-10-17T06:12:46.749Z,4.41
2022-10-17T06:15:32.516Z,4.16
2022-10-17T06:18:18.299Z,4.37
2022-10-17T06:21:04.080Z,4.42
2022-10-17T06:23:50.062Z,4.42
2022-10-17T06:26:35.969Z,4.22
2022-10-17T06:29:23.827Z,4.08
2022-10-17T06:32:12.632Z,3.74
2022-10-17T06:35:00.804Z,4.10
2022-10-17T06:37:46.701Z,4.20
2022-10-17T06:40:32.514Z,3.86
2022-10-17T06:43:18.386Z,4.13
2022-10-17T06:46:04.255Z,3.94
2022-10-17T06:48:50.078Z,3.93
2022-10-17T06:51:36.121Z,4.04
2022-10-17T06:54:21.970Z,3.75
2022-10-17T06:57:07.729Z,3.68
2022-10-17T06:59:53.533Z,3.67
2022-10-17T07:02:39.338Z,3.95
2022-10-17T07:05:25.217Z,3.82
2022-10-17T07:08:13.029Z,3.77
2022-10-17T07:10:58.977Z,3.74
2022-10-17T07:13:44.736Z,3.72
2022-10-17T07:16:30.531Z,4.14
2022-10-17T07:19:16.375Z,4.02
2022-10-17T07:22:02.295Z,4.32
2022-10-17T07:27:40.294Z,3.50
2022-10-17T07:30:26.121Z,3.18
2022-10-17T07:33:11.907Z,3.40
2022-10-17T07:35:57.558Z,3.63
2022-10-17T07:38:43.545Z,3.50
2022-10-17T07:41:29.400Z,3.72
2022-10-17T07:44:15.293Z,3.55
2022-10-17T07:47:01.185Z,3.88
2022-10-17T07:49:47.225Z,3.75
2022-10-17T07:52:33.139Z,3.86
2022-10-17T07:55:19.065Z,3.90
2022-10-17T07:58:04.940Z,3.78
2022-10-17T08:00:50.984Z,3.80
2022-10-17T08:03:37.176Z,3.36
2022-10-17T08:06:23.077Z,3.68
2022-10-17T08:09:08.936Z,3.81
2022-10-17T08:11:54.885Z,3.47
2022-10-17T08:14:40.827Z,3.69
2022-10-17T08:17:26.784Z,3.47
2022-10-17T08:20:12.844Z,3.48
2022-10-17T08:22:58.780Z,3.48
2022-10-17T08:25:44.552Z,3.70
2022-10-17T08:28:30.574Z,3.67
2022-10-17T08:31:16.489Z,3.89
2022-10-17T08:34:02.517Z,3.52
2022-10-17T08:36:48.454Z,4.19
2022-10-17T08:39:34.415Z,4.88
2022-10-17T08:42:20.255Z,4.09
2022-10-17T08:45:06.215Z,4.57
2022-10-17T08:47:52.199Z,4.77
2022-10-17T08:50:38.197Z,5.18
2022-10-17T08:53:23.890Z,5.07
2022-10-17T08:56:15.375Z,4.44
2022-10-17T08:59:05.826Z,4.51
2022-10-17T09:01:51.793Z,4.26
2022-10-17T09:04:37.673Z,4.19
2022-10-17T09:07:23.651Z,3.98
2022-10-17T09:10:09.525Z,4.01
2022-10-17T09:12:57.353Z,3.81
2022-10-17T09:15:43.123Z,4.34
2022-10-17T09:18:29.306Z,3.87
2022-10-17T09:21:17.277Z,3.78
2022-10-17T09:24:09.373Z,3.78
2022-10-17T09:26:55.627Z,4.20
2022-10-17T09:29:43.847Z,3.80
2022-10-17T09:32:30.173Z,3.87
2022-10-17T09:35:16.176Z,3.94
2022-10-17T09:38:02.220Z,3.81
2022-10-17T09:40:48.080Z,3.85
2022-10-17T09:43:33.899Z,3.76
2022-10-17T09:46:19.865Z,3.88
2022-10-17T09:49:05.719Z,3.70
2022-10-17T09:51:51.594Z,3.90
2022-10-17T09:54:37.533Z,3.83
2022-10-17T09:57:23.388Z,12.00
2022-10-17T10:00:09.353Z,3.62
2022-10-17T10:02:55.171Z,3.66
2022-10-17T10:05:40.982Z,3.72
2022-10-17T10:08:27.074Z,3.76
2022-10-17T10:11:14.014Z,3.75
2022-10-17T10:14:00.026Z,3.81
2022-10-17T10:16:45.949Z,3.55
2022-10-17T10:19:31.854Z,3.71
2022-10-17T10:22:17.651Z,3.51
2022-10-17T10:25:05.466Z,3.69
2022-10-17T10:27:51.296Z,3.75
2022-10-17T10:30:39.179Z,3.88
2022-10-17T10:33:26.280Z,3.76
2022-10-17T10:36:12.031Z,4.07
2022-10-17T10:39:01.210Z,4.36
2022-10-17T10:41:50.068Z,3.87
2022-10-17T10:44:35.824Z,4.12
2022-10-17T10:47:21.815Z,4.02
2022-10-17T10:50:08.043Z,3.78
2022-10-17T10:52:54.215Z,3.64
2022-10-17T10:55:40.192Z,3.75
2022-10-17T10:58:26.110Z,3.67
2022-10-17T11:01:12.044Z,3.69
2022-10-17T11:03:57.918Z,3.42
2022-10-17T11:06:43.651Z,3.33
2022-10-17T11:09:32.855Z,3.49
2022-10-17T11:12:19.845Z,3.72
2022-10-17T11:15:05.798Z,5.16
2022-10-17T11:17:51.702Z,8.72
2022-10-17T11:20:37.528Z,4.41
2022-10-17T11:23:23.371Z,3.48
2022-10-17T11:26:09.300Z,3.27
2022-10-17T11:28:55.278Z,3.40
2022-10-17T11:31:41.194Z,3.05
2022-10-17T11:34:27.068Z,3.21
2022-10-17T11:37:15.183Z,3.29
2022-10-17T11:40:01.087Z,2.81
2022-10-17T11:42:47.402Z,3.15
2022-10-17T11:45:33.413Z,3.03
2022-10-17T11:48:19.278Z,3.16
2022-10-17T11:54:11.285Z,3.13
2022-10-17T11:56:57.026Z,3.11
2022-10-17T11:59:42.947Z,7.84
2022-10-17T12:02:29.146Z,4.10
2022-10-17T12:05:15.325Z,2.97
2022-10-17T12:08:01.241Z,2.96
2022-10-17T12:10:47.602Z,3.03
2022-10-17T12:13:33.582Z,2.71
2022-10-17T12:16:19.549Z,2.92
2022-10-17T12:19:05.343Z,2.86
2022-10-17T12:21:51.209Z,2.93
2022-10-17T12:24:37.144Z,2.58
2022-10-17T12:27:23.027Z,2.61
2022-10-17T12:30:09.010Z,2.44
2022-10-17T12:33:05.643Z,2.56
2022-10-17T12:35:53.127Z,2.35
2022-10-17T12:38:39.037Z,2.53
2022-10-17T12:41:24.842Z,2.42
2022-10-17T12:44:10.732Z,2.17
2022-10-17T12:46:56.940Z,2.28
2022-10-17T12:49:42.811Z,2.22
2022-10-17T12:52:28.864Z,2.24
2022-10-17T12:55:15.083Z,2.64
2022-10-17T12:58:01.353Z,2.33
2022-10-17T13:01:05.240Z,2.48
2022-10-17T13:03:53.132Z,2.30
2022-10-17T13:06:38.956Z,2.44
2022-10-17T13:09:24.998Z,2.44
2022-10-17T13:12:10.944Z,2.38
2022-10-17T13:14:57.266Z,6.60
2022-10-17T13:17:43.807Z,8.23
2022-10-17T13:20:31.560Z,2.23
2022-10-17T13:23:17.800Z,2.34
2022-10-17T13:26:03.780Z,2.16
2022-10-17T13:28:49.611Z,2.08
2022-10-17T13:31:35.611Z,2.05
2022-10-17T13:34:21.357Z,2.10
2022-10-17T13:37:07.296Z,2.13
2022-10-17T13:39:55.570Z,2.02
2022-10-17T13:42:42.636Z,2.35
2022-10-17T13:45:28.510Z,2.15
2022-10-17T13:48:14.566Z,2.01
2022-10-17T13:51:03.003Z,2.07
2022-10-17T13:53:49.330Z,2.40
2022-10-17T13:56:35.132Z,5.01
2022-10-17T13:59:21.021Z,7.49
2022-10-17T14:02:08.875Z,1.94
2022-10-17T14:08:21.759Z,1.97
2022-10-17T14:11:07.220Z,2.04
2022-10-17T14:13:53.112Z,1.91
2022-10-17T14:16:39.078Z,2.24
2022-10-17T14:19:24.840Z,1.96
2022-10-17T14:22:10.789Z,1.99
2022-10-17T14:25:02.327Z,2.00
2022-10-17T14:27:48.583Z,1.98
2022-10-17T14:30:55.119Z,2.01
2022-10-17T14:33:42.663Z,1.88
2022-10-17T14:36:29.909Z,1.79
2022-10-17T14:39:15.922Z,1.97
2022-10-17T14:42:04.387Z,1.80
2022-10-17T14:44:52.831Z,1.88
2022-10-17T14:47:43.501Z,1.85
2022-10-17T14:50:29.908Z,1.74
2022-10-17T14:53:15.643Z,1.77
2022-10-17T14:56:01.722Z,1.82
2022-10-17T14:58:47.635Z,1.84
2022-10-17T15:01:33.462Z,1.76
2022-10-17T15:04:19.304Z,2.11
2022-10-17T15:07:05.122Z,1.92
2022-10-17T15:09:51.010Z,2.17
2022-10-17T15:12:36.786Z,1.91
2022-10-17T15:15:22.618Z,1.80
2022-10-17T15:18:08.561Z,2.05
2022-10-17T15:21:04.583Z,2.00
2022-10-17T15:23:52.748Z,1.93
2022-10-17T15:26:38.743Z,2.07
2022-10-17T15:29:24.653Z,2.17
2022-10-17T15:32:10.507Z,2.00
2022-10-17T15:34:56.449Z,2.09
2022-10-17T15:37:42.359Z,2.21
2022-10-17T15:40:28.390Z,2.25
2022-10-17T15:43:19.602Z,2.12
2022-10-17T15:46:06.153Z,2.26
2022-10-17T15:48:52.004Z,2.22
2022-10-17T15:51:37.851Z,2.48
2022-10-17T15:54:23.664Z,2.30
2022-10-17T15:57:09.556Z,2.34
2022-10-17T15:59:55.343Z,2.58
2022-10-17T16:02:41.239Z,2.79
2022-10-17T16:05:27.278Z,2.83
2022-10-17T16:08:13.140Z,2.61
2022-10-17T16:10:59.071Z,2.69
2022-10-17T16:13:44.965Z,2.69
2022-10-17T16:16:30.932Z,2.92
2022-10-17T16:19:16.836Z,2.85
2022-10-17T16:22:04.460Z,3.01
2022-10-17T16:24:50.501Z,2.90
2022-10-17T16:27:36.387Z,2.84
2022-10-17T16:33:12.988Z,3.09
2022-10-17T16:35:58.976Z,3.01
2022-10-17T16:38:44.905Z,3.29
2022-10-17T16:41:30.834Z,3.29
2022-10-17T16:44:16.784Z,3.17
2022-10-17T16:47:04.687Z,3.14
2022-10-17T16:49:50.591Z,3.60
2022-10-17T16:52:36.509Z,3.82
2022-10-17T16:55:22.317Z,3.72
2022-10-17T16:58:07.986Z,3.61
2022-10-17T17:00:54.005Z,3.66
2022-10-17T17:03:40.130Z,3.65
2022-10-17T17:06:26.022Z,3.64
2022-10-17T17:09:11.812Z,4.12
2022-10-17T17:11:57.789Z,4.03
2022-10-17T17:14:43.737Z,4.09
2022-10-17T17:17:37.233Z,4.42
2022-10-17T17:20:30.813Z,4.54
2022-10-17T17:23:16.938Z,4.84
2022-10-17T17:26:04.759Z,4.21
2022-10-17T17:28:50.768Z,4.58
2022-10-17T17:31:38.824Z,4.21
2022-10-17T17:34:24.681Z,4.74
2022-10-17T17:37:10.481Z,4.77
2022-10-17T17:39:56.370Z,4.78
2022-10-17T17:42:42.419Z,4.28
2022-10-17T17:45:28.364Z,4.38
2022-10-17T17:48:14.019Z,4.40
2022-10-17T17:50:59.906Z,4.39
2022-10-17T17:53:45.823Z,4.31
2022-10-17T17:56:31.663Z,4.57
2022-10-17T17:59:17.407Z,4.44
2022-10-17T18:02:03.330Z,4.63
2022-10-17T18:04:49.235Z,5.12
2022-10-17T18:07:35.076Z,4.86
2022-10-17T18:10:20.921Z,4.88
2022-10-17T18:13:06.958Z,4.57
2022-10-17T18:15:52.854Z,4.96
2022-10-17T18:18:38.754Z,4.91
2022-10-17T18:21:24.581Z,4.58
2022-10-17T18:24:10.549Z,4.91
2022-10-17T18:26:58.343Z,4.89
2022-10-17T18:29:44.344Z,5.02
2022-10-17T18:32:30.276Z,5.20
2022-10-17T18:35:16.543Z,5.06
2022-10-17T18:38:02.362Z,5.00
2022-10-17T18:40:50.681Z,4.81
2022-10-17T18:43:36.880Z,4.81
2022-10-17T18:46:22.862Z,4.87
2022-10-17T18:49:08.764Z,5.40
2022-10-17T18:51:54.657Z,5.26
2022-10-17T18:54:40.508Z,5.04
2022-10-17T18:57:26.485Z,4.81
2022-10-17T19:00:12.502Z,5.19
2022-10-17T19:02:58.296Z,4.64
2022-10-17T19:05:44.153Z,4.71
2022-10-17T19:08:30.094Z,5.05
2022-10-17T19:11:15.835Z,4.75
2022-10-17T19:14:01.666Z,5.09
2022-10-17T19:16:47.400Z,4.97
2022-10-17T19:19:33.358Z,5.13
2022-10-17T19:22:19.255Z,4.83
2022-10-17T19:25:05.173Z,5.02
2022-10-17T19:27:50.909Z,5.06
2022-10-17T19:30:38.922Z,5.30
2022-10-17T19:33:24.767Z,5.20
2022-10-17T19:36:10.620Z,5.33
2022-10-17T19:38:56.343Z,4.99
2022-10-17T19:41:42.140Z,4.96
2022-10-17T19:44:28.062Z,5.09
2022-10-17T19:47:13.929Z,5.04
2022-10-17T19:49:59.825Z,5.36
2022-10-17T19:52:45.801Z,4.75
2022-10-17T19:55:31.618Z,5.06
2022-10-17T19:58:17.620Z,5.15
2022-10-17T20:01:03.513Z,5.20
2022-10-17T20:03:49.461Z,4.97
2022-10-17T20:06:35.288Z,5.09
2022-10-17T20:09:21.106Z,5.07
2022-10-17T20:12:07.209Z,4.99
2022-10-17T20:14:53.135Z,4.73
2022-10-17T20:17:38.966Z,5.00
2022-10-17T20:20:26.880Z,4.88
2022-10-17T20:23:12.762Z,5.18
2022-10-17T20:26:06.846Z,5.20
2022-10-17T20:28:59.596Z,4.81
2022-10-17T20:31:45.387Z,4.81
2022-10-17T20:34:31.382Z,4.97
2022-10-17T20:37:17.105Z,5.05
2022-10-17T20:40:33.005Z,4.82
2022-10-17T20:43:08.801Z,4.44
2022-10-17T20:46:03.619Z,4.79
2022-10-17T20:48:54.767Z,4.61
2022-10-17T20:51:40.602Z,4.84
2022-10-17T20:54:26.437Z,4.94
2022-10-17T20:57:12.402Z,4.56
2022-10-17T20:59:58.388Z,4.88
2022-10-17T21:02:44.200Z,4.78
2022-10-17T21:05:29.973Z,5.11
2022-10-17T21:08:16.228Z,4.54
2022-10-17T21:11:02.450Z,4.74
2022-10-17T21:13:48.344Z,4.71
2022-10-17T21:16:33.955Z,4.55
2022-10-17T21:19:19.754Z,4.53
2022-10-17T21:22:05.605Z,4.47
2022-10-17T21:24:51.286Z,4.71
2022-10-17T21:27:37.180Z,4.75
2022-10-17T21:30:23.208Z,4.76
2022-10-17T21:33:09.062Z,4.74
2022-10-17T21:35:55.098Z,4.62
2022-10-17T21:38:40.932Z,4.99
2022-10-17T21:41:26.638Z,4.83
2022-10-17T21:44:12.564Z,4.69
2022-10-17T21:46:58.337Z,4.61
2022-10-17T21:49:44.215Z,4.69
2022-10-17T21:52:30.263Z,4.61
2022-10-17T21:55:16.538Z,4.91
2022-10-17T21:58:02.327Z,4.82
2022-10-17T22:00:48.238Z,4.85
2022-10-17T22:03:36.103Z,4.76
2022-10-17T22:09:27.959Z,5.02
2022-10-17T22:12:13.946Z,4.61
2022-10-17T22:15:01.904Z,4.76
2022-10-17T22:17:47.787Z,4.55
2022-10-17T22:20:33.585Z,4.64
2022-10-17T22:23:19.529Z,4.82
2022-10-17T22:26:05.375Z,5.13
2022-10-17T22:28:51.334Z,5.13
2022-10-17T22:31:37.467Z,4.99
2022-10-17T22:34:23.257Z,5.54
2022-10-17T22:37:09.147Z,5.07
2022-10-17T22:39:55.123Z,5.14
2022-10-17T22:42:41.011Z,5.48
2022-10-17T22:45:26.947Z,5.05
2022-10-17T22:48:12.838Z,5.33
2022-10-17T22:50:58.761Z,5.55
2022-10-17T22:53:46.653Z,5.47
2022-10-17T22:56:32.349Z,5.48
2022-10-17T22:59:18.205Z,5.53
2022-10-17T23:02:04.128Z,5.58
2022-10-17T23:04:49.982Z,5.51
2022-10-17T23:07:35.725Z,5.40
2022-10-17T23:10:21.534Z,5.47
2022-10-17T23:13:07.480Z,5.27
2022-10-17T23:15:53.477Z,5.82
2022-10-17T23:18:39.242Z,5.85
2022-10-17T23:21:25.101Z,5.47
2022-10-17T23:24:10.888Z,5.50
2022-10-17T23:26:56.686Z,5.34
2022-10-17T23:29:42.549Z,5.34
2022-10-17T23:32:28.686Z,4.94
2022-10-17T23:35:14.855Z,5.22
2022-10-17T23:38:00.839Z,5.21
2022-10-17T23:40:46.811Z,5.12
2022-10-17T23:43:32.620Z,5.17
2022-10-17T23:46:18.339Z,5.30
2022-10-17T23:49:04.331Z,5.30
2022-10-17T23:51:50.239Z,5.21
2022-10-17T23:54:36.133Z,4.99
2022-10-17T23:57:21.964Z,5.11
